sensor_id;sensor_type;location;lat;lon;timestamp;P1;durP1;ratioP1;P2;durP2;ratioP2
12707;SDS011;6418;50.824;4.718;2022-12-29T00:01:27;3.93;;;2.93;;
12707;SDS011;6418;50.824;4.718;2022-12-29T00:03:54;4.77;;;2.70;;
12707;SDS011;6418;50.824;4.718;2022-12-29T00:06:21;3.77;;;3.00;;
12707;SDS011;6418;50.824;4.718;2022-12-29T00:08:48;4.50;;;2.87;;
12707;SDS011;6418;50.824;4.718;2022-12-29T00:11:18;4.67;;;3.00;;
12707;SDS011;6418;50.824;4.718;2022-12-29T00:13:46;4.03;;;3.10;;
12707;SDS011;6418;50.824;4.718;2022-12-29T00:16:31;3.87;;;3.00;;
12707;SDS011;6418;50.824;4.718;2022-12-29T00:18:58;4.97;;;2.43;;
12707;SDS011;6418;50.824;4.718;2022-12-29T00:21:25;3.97;;;2.57;;
12707;SDS011;6418;50.824;4.718;2022-12-29T00:24:11;4.87;;;2.50;;
12707;SDS011;6418;50.824;4.718;2022-12-29T00:27:03;3.50;;;2.70;;
12707;SDS011;6418;50.824;4.718;2022-12-29T00:29:55;4.97;;;2.80;;
12707;SDS011;6418;50.824;4.718;2022-12-29T00:32:40;4.43;;;2.13;;
12707;SDS011;6418;50.824;4.718;2022-12-29T00:35:25;7.73;;;2.93;;
12707;SDS011;6418;50.824;4.718;2022-12-29T00:37:53;2.90;;;2.50;;
12707;SDS011;6418;50.824;4.718;2022-12-29T00:40:40;6.10;;;2.73;;
12707;SDS011;6418;50.824;4.718;2022-12-29T00:43:26;3.67;;;2.70;;
12707;SDS011;6418;50.824;4.718;2022-12-29T00:46:10;4.67;;;2.53;;
12707;SDS011;6418;50.824;4.718;2022-12-29T00:48:37;3.87;;;2.23;;
12707;SDS011;6418;50.824;4.718;2022-12-29T00:51:21;3.67;;;2.33;;
12707;SDS011;6418;50.824;4.718;2022-12-29T00:53:48;4.07;;;2.50;;
12707;SDS011;6418;50.824;4.718;2022-12-29T00:56:15;6.07;;;2.87;;
12707;SDS011;6418;50.824;4.718;2022-12-29T00:58:43;7.20;;;2.90;;
12707;SDS011;6418;50.824;4.718;2022-12-29T01:01:10;6.00;;;2.50;;
12707;SDS011;6418;50.824;4.718;2022-12-29T01:03:37;7.17;;;2.67;;
12707;SDS011;6418;50.824;4.718;2022-12-29T01:06:06;5.53;;;2.70;;
12707;SDS011;6418;50.824;4.718;2022-12-29T01:08:34;5.83;;;3.00;;
12707;SDS011;6418;50.824;4.718;2022-12-29T01:11:02;8.80;;;3.30;;
12707;SDS011;6418;50.824;4.718;2022-12-29T01:13:29;8.13;;;2.97;;
12707;SDS011;6418;50.824;4.718;2022-12-29T01:15:57;6.03;;;3.07;;
12707;SDS011;6418;50.824;4.718;2022-12-29T01:18:25;6.83;;;2.93;;
12707;SDS011;6418;50.824;4.718;2022-12-29T01:20:57;5.17;;;2.77;;
12707;SDS011;6418;50.824;4.718;2022-12-29T01:23:25;6.73;;;3.07;;
12707;SDS011;6418;50.824;4.718;2022-12-29T01:25:52;8.97;;;2.70;;
12707;SDS011;6418;50.824;4.718;2022-12-29T01:28:18;5.00;;;2.80;;
12707;SDS011;6418;50.824;4.718;2022-12-29T01:30:45;6.07;;;3.10;;
12707;SDS011;6418;50.824;4.718;2022-12-29T01:33:14;6.57;;;3.07;;
12707;SDS011;6418;50.824;4.718;2022-12-29T01:35:41;7.60;;;3.10;;
12707;SDS011;6418;50.824;4.718;2022-12-29T01:38:07;8.90;;;3.40;;
12707;SDS011;6418;50.824;4.718;2022-12-29T01:40:42;11.07;;;3.40;;
12707;SDS011;6418;50.824;4.718;2022-12-29T01:43:10;8.27;;;3.40;;
12707;SDS011;6418;50.824;4.718;2022-12-29T01:45:40;8.80;;;3.40;;
12707;SDS011;6418;50.824;4.718;2022-12-29T01:48:10;9.20;;;3.63;;
12707;SDS011;6418;50.824;4.718;2022-12-29T01:50:41;9.97;;;3.70;;
12707;SDS011;6418;50.824;4.718;2022-12-29T01:53:13;9.97;;;3.60;;
12707;SDS011;6418;50.824;4.718;2022-12-29T01:55:46;9.77;;;3.90;;
12707;SDS011;6418;50.824;4.718;2022-12-29T01:58:16;10.63;;;3.90;;
12707;SDS011;6418;50.824;4.718;2022-12-29T02:00:46;12.57;;;4.50;;
12707;SDS011;6418;50.824;4.718;2022-12-29T02:03:15;10.47;;;3.97;;
12707;SDS011;6418;50.824;4.718;2022-12-29T02:05:46;8.13;;;3.70;;
12707;SDS011;6418;50.824;4.718;2022-12-29T02:08:17;9.03;;;3.97;;
12707;SDS011;6418;50.824;4.718;2022-12-29T02:10:45;10.20;;;3.70;;
12707;SDS011;6418;50.824;4.718;2022-12-29T02:13:14;7.67;;;3.50;;
12707;SDS011;6418;50.824;4.718;2022-12-29T02:15:45;6.23;;;3.40;;
12707;SDS011;6418;50.824;4.718;2022-12-29T02:18:25;6.50;;;3.23;;
12707;SDS011;6418;50.824;4.718;2022-12-29T02:24:15;5.23;;;2.77;;
12707;SDS011;6418;50.824;4.718;2022-12-29T02:27:20;3.07;;;2.57;;
12707;SDS011;6418;50.824;4.718;2022-12-29T02:32:58;4.97;;;2.77;;
12707;SDS011;6418;50.824;4.718;2022-12-29T02:35:33;7.73;;;2.87;;
12707;SDS011;6418;50.824;4.718;2022-12-29T02:38:06;4.07;;;2.80;;
12707;SDS011;6418;50.824;4.718;2022-12-29T02:40:40;4.53;;;2.60;;
12707;SDS011;6418;50.824;4.718;2022-12-29T02:43:17;3.03;;;2.67;;
12707;SDS011;6418;50.824;4.718;2022-12-29T02:45:53;5.87;;;2.87;;
12707;SDS011;6418;50.824;4.718;2022-12-29T02:48:24;5.13;;;2.53;;
12707;SDS011;6418;50.824;4.718;2022-12-29T02:50:57;5.43;;;3.20;;
12707;SDS011;6418;50.824;4.718;2022-12-29T02:53:28;4.27;;;2.57;;
12707;SDS011;6418;50.824;4.718;2022-12-29T02:56:14;5.37;;;3.20;;
12707;SDS011;6418;50.824;4.718;2022-12-29T02:58:41;8.03;;;3.00;;
12707;SDS011;6418;50.824;4.718;2022-12-29T03:01:16;6.63;;;3.17;;
12707;SDS011;6418;50.824;4.718;2022-12-29T03:06:55;5.40;;;2.87;;
12707;SDS011;6418;50.824;4.718;2022-12-29T03:09:29;6.07;;;3.40;;
12707;SDS011;6418;50.824;4.718;2022-12-29T03:12:05;9.50;;;3.50;;
12707;SDS011;6418;50.824;4.718;2022-12-29T03:14:44;7.83;;;3.47;;
12707;SDS011;6418;50.824;4.718;2022-12-29T03:17:37;5.27;;;3.00;;
12707;SDS011;6418;50.824;4.718;2022-12-29T03:20:13;7.17;;;3.30;;
12707;SDS011;6418;50.824;4.718;2022-12-29T03:22:44;6.10;;;2.90;;
12707;SDS011;6418;50.824;4.718;2022-12-29T03:25:14;4.23;;;2.87;;
12707;SDS011;6418;50.824;4.718;2022-12-29T03:27:47;5.33;;;3.10;;
12707;SDS011;6418;50.824;4.718;2022-12-29T03:30:16;8.93;;;3.77;;
12707;SDS011;6418;50.824;4.718;2022-12-29T03:32:46;5.30;;;3.13;;
12707;SDS011;6418;50.824;4.718;2022-12-29T03:35:16;7.23;;;2.90;;
12707;SDS011;6418;50.824;4.718;2022-12-29T03:37:51;3.63;;;2.70;;
12707;SDS011;6418;50.824;4.718;2022-12-29T03:40:24;7.20;;;2.80;;
12707;SDS011;6418;50.824;4.718;2022-12-29T03:42:52;6.40;;;2.77;;
12707;SDS011;6418;50.824;4.718;2022-12-29T03:45:20;10.43;;;3.47;;
12707;SDS011;6418;50.824;4.718;2022-12-29T03:47:49;8.27;;;2.67;;
12707;SDS011;6418;50.824;4.718;2022-12-29T03:50:16;7.33;;;2.77;;
12707;SDS011;6418;50.824;4.718;2022-12-29T03:52:43;6.43;;;2.30;;
12707;SDS011;6418;50.824;4.718;2022-12-29T03:55:10;5.80;;;2.47;;
12707;SDS011;6418;50.824;4.718;2022-12-29T03:57:37;7.70;;;3.20;;
12707;SDS011;6418;50.824;4.718;2022-12-29T04:00:04;6.93;;;2.60;;
12707;SDS011;6418;50.824;4.718;2022-12-29T04:02:32;8.53;;;2.87;;
12707;SDS011;6418;50.824;4.718;2022-12-29T04:05:00;6.67;;;2.53;;
12707;SDS011;6418;50.824;4.718;2022-12-29T04:07:27;6.37;;;2.40;;
12707;SDS011;6418;50.824;4.718;2022-12-29T04:09:54;7.30;;;2.67;;
12707;SDS011;6418;50.824;4.718;2022-12-29T04:12:21;7.23;;;2.23;;
12707;SDS011;6418;50.824;4.718;2022-12-29T04:14:48;8.43;;;2.60;;
12707;SDS011;6418;50.824;4.718;2022-12-29T04:17:15;10.90;;;2.67;;
12707;SDS011;6418;50.824;4.718;2022-12-29T04:19:42;8.23;;;2.73;;
12707;SDS011;6418;50.824;4.718;2022-12-29T04:22:10;6.97;;;2.27;;
12707;SDS011;6418;50.824;4.718;2022-12-29T04:24:37;9.60;;;2.73;;
12707;SDS011;6418;50.824;4.718;2022-12-29T04:27:04;7.20;;;2.63;;
12707;SDS011;6418;50.824;4.718;2022-12-29T04:29:31;5.77;;;2.50;;
12707;SDS011;6418;50.824;4.718;2022-12-29T04:31:58;5.37;;;3.00;;
12707;SDS011;6418;50.824;4.718;2022-12-29T04:34:25;6.17;;;2.60;;
12707;SDS011;6418;50.824;4.718;2022-12-29T04:36:52;9.73;;;2.57;;
12707;SDS011;6418;50.824;4.718;2022-12-29T04:39:20;7.37;;;2.80;;
12707;SDS011;6418;50.824;4.718;2022-12-29T04:41:47;8.30;;;2.63;;
12707;SDS011;6418;50.824;4.718;2022-12-29T04:44:14;5.73;;;2.20;;
12707;SDS011;6418;50.824;4.718;2022-12-29T04:46:41;10.27;;;2.80;;
12707;SDS011;6418;50.824;4.718;2022-12-29T04:49:07;7.50;;;2.40;;
12707;SDS011;6418;50.824;4.718;2022-12-29T04:51:34;9.13;;;2.67;;
12707;SDS011;6418;50.824;4.718;2022-12-29T04:54:02;9.93;;;2.53;;
12707;SDS011;6418;50.824;4.718;2022-12-29T04:56:30;10.20;;;3.03;;
12707;SDS011;6418;50.824;4.718;2022-12-29T04:58:57;8.20;;;2.47;;
12707;SDS011;6418;50.824;4.718;2022-12-29T05:01:24;4.93;;;2.47;;
12707;SDS011;6418;50.824;4.718;2022-12-29T05:03:51;5.67;;;2.97;;
12707;SDS011;6418;50.824;4.718;2022-12-29T05:06:18;9.80;;;3.17;;
12707;SDS011;6418;50.824;4.718;2022-12-29T05:08:45;10.47;;;3.03;;
12707;SDS011;6418;50.824;4.718;2022-12-29T05:11:12;12.57;;;3.30;;
12707;SDS011;6418;50.824;4.718;2022-12-29T05:13:40;7.97;;;2.43;;
12707;SDS011;6418;50.824;4.718;2022-12-29T05:16:07;6.47;;;2.70;;
12707;SDS011;6418;50.824;4.718;2022-12-29T05:18:34;10.37;;;2.80;;
12707;SDS011;6418;50.824;4.718;2022-12-29T05:21:01;9.03;;;2.80;;
12707;SDS011;6418;50.824;4.718;2022-12-29T05:23:27;6.77;;;2.40;;
12707;SDS011;6418;50.824;4.718;2022-12-29T05:25:54;9.30;;;2.73;;
12707;SDS011;6418;50.824;4.718;2022-12-29T05:28:21;7.50;;;2.37;;
12707;SDS011;6418;50.824;4.718;2022-12-29T05:30:50;7.97;;;2.93;;
12707;SDS011;6418;50.824;4.718;2022-12-29T05:33:17;8.10;;;2.50;;
12707;SDS011;6418;50.824;4.718;2022-12-29T05:35:45;11.20;;;3.60;;
12707;SDS011;6418;50.824;4.718;2022-12-29T05:38:12;10.33;;;3.00;;
12707;SDS011;6418;50.824;4.718;2022-12-29T05:40:38;12.47;;;3.00;;
12707;SDS011;6418;50.824;4.718;2022-12-29T05:43:05;10.70;;;2.70;;
12707;SDS011;6418;50.824;4.718;2022-12-29T05:45:32;11.97;;;3.03;;
12707;SDS011;6418;50.824;4.718;2022-12-29T05:48:00;6.30;;;2.63;;
12707;SDS011;6418;50.824;4.718;2022-12-29T05:50:27;10.53;;;3.50;;
12707;SDS011;6418;50.824;4.718;2022-12-29T05:52:54;15.57;;;3.80;;
12707;SDS011;6418;50.824;4.718;2022-12-29T05:55:21;10.17;;;3.37;;
12707;SDS011;6418;50.824;4.718;2022-12-29T05:57:48;10.23;;;3.30;;
12707;SDS011;6418;50.824;4.718;2022-12-29T06:00:15;6.73;;;2.83;;
12707;SDS011;6418;50.824;4.718;2022-12-29T06:02:42;10.10;;;3.67;;
12707;SDS011;6418;50.824;4.718;2022-12-29T06:05:10;13.53;;;3.40;;
12707;SDS011;6418;50.824;4.718;2022-12-29T06:07:37;8.53;;;3.20;;
12707;SDS011;6418;50.824;4.718;2022-12-29T06:10:05;13.67;;;3.20;;
12707;SDS011;6418;50.824;4.718;2022-12-29T06:12:32;10.33;;;2.83;;
12707;SDS011;6418;50.824;4.718;2022-12-29T06:14:59;9.37;;;2.57;;
12707;SDS011;6418;50.824;4.718;2022-12-29T06:17:26;8.90;;;3.37;;
12707;SDS011;6418;50.824;4.718;2022-12-29T06:19:53;11.60;;;3.23;;
12707;SDS011;6418;50.824;4.718;2022-12-29T06:22:21;9.87;;;3.33;;
12707;SDS011;6418;50.824;4.718;2022-12-29T06:24:48;12.43;;;3.07;;
12707;SDS011;6418;50.824;4.718;2022-12-29T06:27:14;12.07;;;3.77;;
12707;SDS011;6418;50.824;4.718;2022-12-29T06:29:41;11.27;;;3.20;;
12707;SDS011;6418;50.824;4.718;2022-12-29T06:32:08;10.97;;;3.70;;
12707;SDS011;6418;50.824;4.718;2022-12-29T06:34:35;11.43;;;3.47;;
12707;SDS011;6418;50.824;4.718;2022-12-29T06:37:02;9.00;;;3.20;;
12707;SDS011;6418;50.824;4.718;2022-12-29T06:39:30;10.47;;;3.33;;
12707;SDS011;6418;50.824;4.718;2022-12-29T06:41:57;10.07;;;3.33;;
12707;SDS011;6418;50.824;4.718;2022-12-29T06:44:24;14.20;;;3.33;;
12707;SDS011;6418;50.824;4.718;2022-12-29T06:46:51;9.03;;;3.30;;
12707;SDS011;6418;50.824;4.718;2022-12-29T06:49:18;7.80;;;2.90;;
12707;SDS011;6418;50.824;4.718;2022-12-29T06:51:45;10.20;;;3.10;;
12707;SDS011;6418;50.824;4.718;2022-12-29T06:54:12;12.70;;;3.40;;
12707;SDS011;6418;50.824;4.718;2022-12-29T06:56:40;10.87;;;3.40;;
12707;SDS011;6418;50.824;4.718;2022-12-29T06:59:07;12.90;;;3.30;;
12707;SDS011;6418;50.824;4.718;2022-12-29T07:01:35;10.40;;;3.10;;
12707;SDS011;6418;50.824;4.718;2022-12-29T07:04:02;11.07;;;3.67;;
12707;SDS011;6418;50.824;4.718;2022-12-29T07:06:29;10.77;;;3.57;;
12707;SDS011;6418;50.824;4.718;2022-12-29T07:08:56;12.17;;;3.87;;
12707;SDS011;6418;50.824;4.718;2022-12-29T07:11:23;8.57;;;3.03;;
12707;SDS011;6418;50.824;4.718;2022-12-29T07:13:51;15.43;;;3.40;;
12707;SDS011;6418;50.824;4.718;2022-12-29T07:16:18;16.00;;;3.93;;
12707;SDS011;6418;50.824;4.718;2022-12-29T07:18:45;10.17;;;3.17;;
12707;SDS011;6418;50.824;4.718;2022-12-29T07:21:12;9.63;;;3.07;;
12707;SDS011;6418;50.824;4.718;2022-12-29T07:23:39;8.30;;;3.30;;
12707;SDS011;6418;50.824;4.718;2022-12-29T07:26:06;11.83;;;3.20;;
12707;SDS011;6418;50.824;4.718;2022-12-29T07:28:35;11.90;;;3.53;;
12707;SDS011;6418;50.824;4.718;2022-12-29T07:31:04;12.30;;;3.23;;
12707;SDS011;6418;50.824;4.718;2022-12-29T07:33:32;14.17;;;3.73;;
12707;SDS011;6418;50.824;4.718;2022-12-29T07:35:59;13.83;;;3.40;;
12707;SDS011;6418;50.824;4.718;2022-12-29T07:38:26;14.07;;;3.57;;
12707;SDS011;6418;50.824;4.718;2022-12-29T07:40:56;14.93;;;3.23;;
12707;SDS011;6418;50.824;4.718;2022-12-29T07:43:23;11.77;;;3.33;;
12707;SDS011;6418;50.824;4.718;2022-12-29T07:45:50;12.23;;;3.60;;
12707;SDS011;6418;50.824;4.718;2022-12-29T07:48:18;12.33;;;3.37;;
12707;SDS011;6418;50.824;4.718;2022-12-29T07:50:45;12.47;;;3.47;;
12707;SDS011;6418;50.824;4.718;2022-12-29T07:53:12;14.40;;;3.90;;
12707;SDS011;6418;50.824;4.718;2022-12-29T07:55:38;12.53;;;3.53;;
12707;SDS011;6418;50.824;4.718;2022-12-29T07:58:05;13.57;;;3.73;;
12707;SDS011;6418;50.824;4.718;2022-12-29T08:00:33;10.97;;;3.27;;
12707;SDS011;6418;50.824;4.718;2022-12-29T08:03:00;11.93;;;3.33;;
12707;SDS011;6418;50.824;4.718;2022-12-29T08:05:28;14.17;;;3.60;;
12707;SDS011;6418;50.824;4.718;2022-12-29T08:07:56;17.97;;;7.20;;
12707;SDS011;6418;50.824;4.718;2022-12-29T08:10:23;11.10;;;3.40;;
12707;SDS011;6418;50.824;4.718;2022-12-29T08:12:50;12.17;;;3.53;;
12707;SDS011;6418;50.824;4.718;2022-12-29T08:15:17;12.90;;;4.77;;
12707;SDS011;6418;50.824;4.718;2022-12-29T08:17:44;15.20;;;3.80;;
12707;SDS011;6418;50.824;4.718;2022-12-29T08:20:11;15.53;;;3.87;;
12707;SDS011;6418;50.824;4.718;2022-12-29T08:22:39;10.10;;;3.10;;
12707;SDS011;6418;50.824;4.718;2022-12-29T08:25:06;15.97;;;3.80;;
12707;SDS011;6418;50.824;4.718;2022-12-29T08:27:34;16.03;;;4.00;;
12707;SDS011;6418;50.824;4.718;2022-12-29T08:30:01;11.13;;;3.80;;
12707;SDS011;6418;50.824;4.718;2022-12-29T08:32:28;10.83;;;3.10;;
12707;SDS011;6418;50.824;4.718;2022-12-29T08:34:55;12.37;;;3.70;;
12707;SDS011;6418;50.824;4.718;2022-12-29T08:37:22;11.20;;;3.60;;
12707;SDS011;6418;50.824;4.718;2022-12-29T08:39:50;13.07;;;3.90;;
12707;SDS011;6418;50.824;4.718;2022-12-29T08:42:17;17.80;;;3.70;;
12707;SDS011;6418;50.824;4.718;2022-12-29T08:44:44;11.87;;;3.60;;
12707;SDS011;6418;50.824;4.718;2022-12-29T08:47:11;12.90;;;3.87;;
12707;SDS011;6418;50.824;4.718;2022-12-29T08:49:38;13.23;;;3.50;;
12707;SDS011;6418;50.824;4.718;2022-12-29T08:52:04;13.50;;;3.60;;
12707;SDS011;6418;50.824;4.718;2022-12-29T08:54:31;11.87;;;3.40;;
12707;SDS011;6418;50.824;4.718;2022-12-29T08:57:00;12.87;;;3.67;;
12707;SDS011;6418;50.824;4.718;2022-12-29T08:59:27;15.93;;;4.13;;
12707;SDS011;6418;50.824;4.718;2022-12-29T09:01:53;13.73;;;3.70;;
12707;SDS011;6418;50.824;4.718;2022-12-29T09:04:20;12.77;;;3.73;;
12707;SDS011;6418;50.824;4.718;2022-12-29T09:06:48;12.60;;;3.90;;
12707;SDS011;6418;50.824;4.718;2022-12-29T09:09:16;14.37;;;3.67;;
12707;SDS011;6418;50.824;4.718;2022-12-29T09:11:43;14.27;;;3.77;;
12707;SDS011;6418;50.824;4.718;2022-12-29T09:14:12;12.70;;;3.60;;
12707;SDS011;6418;50.824;4.718;2022-12-29T09:16:39;11.77;;;3.53;;
12707;SDS011;6418;50.824;4.718;2022-12-29T09:19:24;15.93;;;4.30;;
12707;SDS011;6418;50.824;4.718;2022-12-29T09:21:50;17.73;;;3.93;;
12707;SDS011;6418;50.824;4.718;2022-12-29T09:24:17;12.40;;;3.90;;
12707;SDS011;6418;50.824;4.718;2022-12-29T09:26:44;12.60;;;3.50;;
12707;SDS011;6418;50.824;4.718;2022-12-29T09:29:12;14.80;;;4.00;;
12707;SDS011;6418;50.824;4.718;2022-12-29T09:31:39;16.70;;;4.13;;
12707;SDS011;6418;50.824;4.718;2022-12-29T09:34:06;10.97;;;3.23;;
12707;SDS011;6418;50.824;4.718;2022-12-29T09:36:33;15.93;;;3.67;;
12707;SDS011;6418;50.824;4.718;2022-12-29T09:39:00;12.60;;;3.83;;
12707;SDS011;6418;50.824;4.718;2022-12-29T09:41:29;15.03;;;4.30;;
12707;SDS011;6418;50.824;4.718;2022-12-29T09:44:05;13.53;;;3.80;;
12707;SDS011;6418;50.824;4.718;2022-12-29T09:46:41;16.43;;;3.87;;
12707;SDS011;6418;50.824;4.718;2022-12-29T09:49:15;14.30;;;3.90;;
12707;SDS011;6418;50.824;4.718;2022-12-29T09:51:49;17.20;;;3.97;;
12707;SDS011;6418;50.824;4.718;2022-12-29T09:54:35;14.73;;;4.20;;
12707;SDS011;6418;50.824;4.718;2022-12-29T09:57:10;15.37;;;3.80;;
12707;SDS011;6418;50.824;4.718;2022-12-29T09:59:42;17.30;;;4.37;;
12707;SDS011;6418;50.824;4.718;2022-12-29T10:02:20;20.37;;;4.20;;
12707;SDS011;6418;50.824;4.718;2022-12-29T10:04:55;14.20;;;3.67;;
12707;SDS011;6418;50.824;4.718;2022-12-29T10:07:26;16.90;;;4.37;;
12707;SDS011;6418;50.824;4.718;2022-12-29T10:10:01;13.67;;;3.67;;
12707;SDS011;6418;50.824;4.718;2022-12-29T10:12:46;12.80;;;4.13;;
12707;SDS011;6418;50.824;4.718;2022-12-29T10:15:28;18.80;;;4.33;;
12707;SDS011;6418;50.824;4.718;2022-12-29T10:18:07;9.33;;;3.63;;
12707;SDS011;6418;50.824;4.718;2022-12-29T10:20:46;14.13;;;3.87;;
12707;SDS011;6418;50.824;4.718;2022-12-29T10:23:21;13.47;;;3.80;;
12707;SDS011;6418;50.824;4.718;2022-12-29T10:25:53;15.50;;;4.00;;
12707;SDS011;6418;50.824;4.718;2022-12-29T10:28:23;15.90;;;3.80;;
12707;SDS011;6418;50.824;4.718;2022-12-29T10:30:55;17.20;;;4.50;;
12707;SDS011;6418;50.824;4.718;2022-12-29T10:33:28;13.57;;;3.90;;
12707;SDS011;6418;50.824;4.718;2022-12-29T10:36:01;10.57;;;3.63;;
12707;SDS011;6418;50.824;4.718;2022-12-29T10:38:37;13.53;;;3.90;;
12707;SDS011;6418;50.824;4.718;2022-12-29T10:41:12;15.67;;;4.70;;
12707;SDS011;6418;50.824;4.718;2022-12-29T10:43:44;13.10;;;4.40;;
12707;SDS011;6418;50.824;4.718;2022-12-29T10:46:13;15.27;;;4.07;;
12707;SDS011;6418;50.824;4.718;2022-12-29T10:48:46;16.73;;;4.30;;
12707;SDS011;6418;50.824;4.718;2022-12-29T10:51:15;13.30;;;3.87;;
12707;SDS011;6418;50.824;4.718;2022-12-29T10:53:48;18.60;;;4.80;;
12707;SDS011;6418;50.824;4.718;2022-12-29T10:56:21;16.53;;;5.33;;
12707;SDS011;6418;50.824;4.718;2022-12-29T10:58:56;19.87;;;4.47;;
12707;SDS011;6418;50.824;4.718;2022-12-29T11:01:29;19.23;;;4.60;;
12707;SDS011;6418;50.824;4.718;2022-12-29T11:04:04;15.57;;;4.07;;
12707;SDS011;6418;50.824;4.718;2022-12-29T11:06:43;13.63;;;4.03;;
12707;SDS011;6418;50.824;4.718;2022-12-29T11:09:12;16.03;;;4.60;;
12707;SDS011;6418;50.824;4.718;2022-12-29T11:11:42;15.93;;;4.00;;
12707;SDS011;6418;50.824;4.718;2022-12-29T11:14:11;12.77;;;4.07;;
12707;SDS011;6418;50.824;4.718;2022-12-29T11:16:40;15.07;;;4.50;;
12707;SDS011;6418;50.824;4.718;2022-12-29T11:19:20;15.17;;;3.87;;
12707;SDS011;6418;50.824;4.718;2022-12-29T11:21:49;11.63;;;3.87;;
12707;SDS011;6418;50.824;4.718;2022-12-29T11:24:20;13.10;;;3.80;;
12707;SDS011;6418;50.824;4.718;2022-12-29T11:26:49;14.13;;;4.23;;
12707;SDS011;6418;50.824;4.718;2022-12-29T11:29:23;11.83;;;3.73;;
12707;SDS011;6418;50.824;4.718;2022-12-29T11:31:52;14.80;;;4.17;;
12707;SDS011;6418;50.824;4.718;2022-12-29T11:34:22;17.50;;;4.57;;
12707;SDS011;6418;50.824;4.718;2022-12-29T11:36:51;11.67;;;3.77;;
12707;SDS011;6418;50.824;4.718;2022-12-29T11:39:34;13.40;;;4.30;;
12707;SDS011;6418;50.824;4.718;2022-12-29T11:42:05;11.23;;;3.73;;
12707;SDS011;6418;50.824;4.718;2022-12-29T11:44:41;15.23;;;4.17;;
12707;SDS011;6418;50.824;4.718;2022-12-29T11:47:12;16.80;;;5.83;;
12707;SDS011;6418;50.824;4.718;2022-12-29T11:49:50;19.47;;;6.03;;
12707;SDS011;6418;50.824;4.718;2022-12-29T11:52:21;18.17;;;6.80;;
12707;SDS011;6418;50.824;4.718;2022-12-29T11:54:49;17.83;;;6.07;;
12707;SDS011;6418;50.824;4.718;2022-12-29T11:57:17;14.67;;;4.40;;
12707;SDS011;6418;50.824;4.718;2022-12-29T11:59:49;15.67;;;5.30;;
12707;SDS011;6418;50.824;4.718;2022-12-29T12:05:10;18.90;;;7.13;;
12707;SDS011;6418;50.824;4.718;2022-12-29T12:07:52;15.97;;;4.97;;
12707;SDS011;6418;50.824;4.718;2022-12-29T12:10:23;14.63;;;5.93;;
12707;SDS011;6418;50.824;4.718;2022-12-29T12:12:56;16.27;;;5.00;;
12707;SDS011;6418;50.824;4.718;2022-12-29T12:15:31;15.07;;;3.77;;
12707;SDS011;6418;50.824;4.718;2022-12-29T12:18:04;12.80;;;3.77;;
12707;SDS011;6418;50.824;4.718;2022-12-29T12:20:41;13.17;;;3.20;;
12707;SDS011;6418;50.824;4.718;2022-12-29T12:23:20;13.00;;;3.60;;
12707;SDS011;6418;50.824;4.718;2022-12-29T12:25:56;15.17;;;3.60;;
12707;SDS011;6418;50.824;4.718;2022-12-29T12:28:32;14.73;;;4.03;;
12707;SDS011;6418;50.824;4.718;2022-12-29T12:31:02;15.47;;;4.20;;
12707;SDS011;6418;50.824;4.718;2022-12-29T12:33:39;12.60;;;4.07;;
12707;SDS011;6418;50.824;4.718;2022-12-29T12:36:17;13.63;;;3.60;;
12707;SDS011;6418;50.824;4.718;2022-12-29T12:39:06;10.77;;;3.60;;
12707;SDS011;6418;50.824;4.718;2022-12-29T12:41:41;14.23;;;4.10;;
12707;SDS011;6418;50.824;4.718;2022-12-29T12:44:18;15.97;;;4.30;;
12707;SDS011;6418;50.824;4.718;2022-12-29T12:46:57;15.47;;;4.63;;
12707;SDS011;6418;50.824;4.718;2022-12-29T12:49:56;14.77;;;4.00;;
12707;SDS011;6418;50.824;4.718;2022-12-29T12:52:43;13.80;;;3.87;;
12707;SDS011;6418;50.824;4.718;2022-12-29T12:55:29;17.03;;;3.87;;
12707;SDS011;6418;50.824;4.718;2022-12-29T12:58:06;17.60;;;4.33;;
12707;SDS011;6418;50.824;4.718;2022-12-29T13:00:39;12.73;;;3.60;;
12707;SDS011;6418;50.824;4.718;2022-12-29T13:03:18;14.07;;;4.07;;
12707;SDS011;6418;50.824;4.718;2022-12-29T13:06:00;12.67;;;4.07;;
12707;SDS011;6418;50.824;4.718;2022-12-29T13:09:00;15.87;;;4.20;;
12707;SDS011;6418;50.824;4.718;2022-12-29T13:11:44;14.07;;;3.93;;
12707;SDS011;6418;50.824;4.718;2022-12-29T13:14:27;15.63;;;3.67;;
12707;SDS011;6418;50.824;4.718;2022-12-29T13:17:04;13.30;;;4.40;;
12707;SDS011;6418;50.824;4.718;2022-12-29T13:19:36;19.20;;;4.47;;
12707;SDS011;6418;50.824;4.718;2022-12-29T13:22:08;17.73;;;4.27;;
12707;SDS011;6418;50.824;4.718;2022-12-29T13:24:43;16.47;;;3.93;;
12707;SDS011;6418;50.824;4.718;2022-12-29T13:27:20;13.50;;;3.97;;
12707;SDS011;6418;50.824;4.718;2022-12-29T13:29:55;18.43;;;4.23;;
12707;SDS011;6418;50.824;4.718;2022-12-29T13:32:31;12.37;;;3.53;;
12707;SDS011;6418;50.824;4.718;2022-12-29T13:35:11;16.07;;;4.30;;
12707;SDS011;6418;50.824;4.718;2022-12-29T13:37:53;14.50;;;4.00;;
12707;SDS011;6418;50.824;4.718;2022-12-29T13:40:25;16.37;;;4.57;;
12707;SDS011;6418;50.824;4.718;2022-12-29T13:42:59;17.00;;;4.70;;
12707;SDS011;6418;50.824;4.718;2022-12-29T13:45:28;15.87;;;4.50;;
12707;SDS011;6418;50.824;4.718;2022-12-29T13:48:00;18.30;;;6.13;;
12707;SDS011;6418;50.824;4.718;2022-12-29T13:50:33;15.77;;;4.40;;
12707;SDS011;6418;50.824;4.718;2022-12-29T13:53:06;19.13;;;4.53;;
12707;SDS011;6418;50.824;4.718;2022-12-29T13:55:45;17.40;;;4.43;;
12707;SDS011;6418;50.824;4.718;2022-12-29T13:58:20;19.13;;;4.73;;
12707;SDS011;6418;50.824;4.718;2022-12-29T14:00:55;18.00;;;4.63;;
12707;SDS011;6418;50.824;4.718;2022-12-29T14:03:43;19.37;;;5.70;;
12707;SDS011;6418;50.824;4.718;2022-12-29T14:06:15;17.40;;;4.63;;
12707;SDS011;6418;50.824;4.718;2022-12-29T14:08:46;19.10;;;4.40;;
12707;SDS011;6418;50.824;4.718;2022-12-29T14:11:15;17.33;;;4.47;;
12707;SDS011;6418;50.824;4.718;2022-12-29T14:13:44;17.27;;;4.63;;
12707;SDS011;6418;50.824;4.718;2022-12-29T14:16:22;16.37;;;4.93;;
12707;SDS011;6418;50.824;4.718;2022-12-29T14:18:55;17.33;;;4.77;;
12707;SDS011;6418;50.824;4.718;2022-12-29T14:21:30;15.50;;;5.40;;
12707;SDS011;6418;50.824;4.718;2022-12-29T14:30:06;20.37;;;5.60;;
12707;SDS011;6418;50.824;4.718;2022-12-29T14:33:12;15.70;;;4.80;;
12707;SDS011;6418;50.824;4.718;2022-12-29T14:35:41;18.00;;;5.20;;
12707;SDS011;6418;50.824;4.718;2022-12-29T14:38:14;17.70;;;4.87;;
12707;SDS011;6418;50.824;4.718;2022-12-29T14:40:44;17.57;;;4.57;;
12707;SDS011;6418;50.824;4.718;2022-12-29T14:43:12;17.87;;;5.00;;
12707;SDS011;6418;50.824;4.718;2022-12-29T14:45:48;17.27;;;4.53;;
12707;SDS011;6418;50.824;4.718;2022-12-29T14:48:30;18.43;;;4.40;;
12707;SDS011;6418;50.824;4.718;2022-12-29T14:51:20;18.00;;;4.43;;
12707;SDS011;6418;50.824;4.718;2022-12-29T14:53:55;15.50;;;4.57;;
12707;SDS011;6418;50.824;4.718;2022-12-29T14:56:24;22.30;;;5.67;;
12707;SDS011;6418;50.824;4.718;2022-12-29T14:58:53;14.00;;;4.50;;
12707;SDS011;6418;50.824;4.718;2022-12-29T15:01:25;18.40;;;4.57;;
12707;SDS011;6418;50.824;4.718;2022-12-29T15:03:59;27.80;;;9.77;;
12707;SDS011;6418;50.824;4.718;2022-12-29T15:06:31;15.47;;;4.27;;
12707;SDS011;6418;50.824;4.718;2022-12-29T15:09:03;14.73;;;4.37;;
12707;SDS011;6418;50.824;4.718;2022-12-29T15:11:41;16.40;;;4.73;;
12707;SDS011;6418;50.824;4.718;2022-12-29T15:14:27;16.97;;;4.47;;
12707;SDS011;6418;50.824;4.718;2022-12-29T15:17:01;12.30;;;4.10;;
12707;SDS011;6418;50.824;4.718;2022-12-29T15:19:35;19.07;;;4.97;;
12707;SDS011;6418;50.824;4.718;2022-12-29T15:22:02;12.27;;;3.70;;
12707;SDS011;6418;50.824;4.718;2022-12-29T15:24:29;16.57;;;4.80;;
12707;SDS011;6418;50.824;4.718;2022-12-29T15:26:56;21.60;;;5.07;;
12707;SDS011;6418;50.824;4.718;2022-12-29T15:29:32;19.23;;;4.77;;
12707;SDS011;6418;50.824;4.718;2022-12-29T15:32:14;20.93;;;5.40;;
12707;SDS011;6418;50.824;4.718;2022-12-29T15:34:44;19.43;;;6.63;;
12707;SDS011;6418;50.824;4.718;2022-12-29T15:37:20;21.93;;;5.50;;